createdAt,value
2018-10-19T00:00:20.931Z,940.45
2018-10-19T00:01:21.723Z,940.45
2018-10-19T00:02:22.690Z,940.42
2018-10-19T00:03:23.533Z,940.44
2018-10-19T00:04:24.601Z,940.44
2018-10-19T00:05:25.392Z,940.42
2018-10-19T00:06:26.468Z,940.44
2018-10-19T00:07:26.989Z,940.41
2018-10-19T00:08:28.061Z,940.42
2018-10-19T00:09:28.578Z,940.43
2018-10-19T00:10:29.096Z,940.38
2018-10-19T00:11:29.616Z,940.38
2018-10-19T00:12:30.690Z,940.4
2018-10-19T00:13:31.483Z,940.41
2018-10-19T00:14:32.275Z,940.4
2018-10-19T00:15:33.792Z,940.42
2018-10-19T00:16:34.135Z,940.4
2018-10-19T00:17:35.652Z,940.45
2018-10-19T00:18:36.886Z,940.43
2018-10-19T00:19:38.238Z,940.43
2018-10-19T00:20:39.475Z,940.42
2018-10-19T00:21:40.547Z,940.42
2018-10-19T00:22:41.525Z,940.42
2018-10-19T00:23:42.148Z,940.43
2018-10-19T00:24:43.220Z,940.43
2018-10-19T00:25:43.566Z,940.42
2018-10-19T00:26:44.358Z,940.41
2018-10-19T00:27:44.707Z,940.4
2018-10-19T00:28:45.498Z,940.36
2018-10-19T00:29:46.735Z,940.39
2018-10-19T00:30:47.404Z,940.36
2018-10-19T00:31:48.036Z,940.34
2018-10-19T00:32:48.587Z,940.35
2018-10-19T00:33:49.211Z,940.35
2018-10-19T00:34:50.007Z,940.34
2018-10-19T00:35:51.244Z,940.34
2018-10-19T00:36:51.729Z,940.36
2018-10-19T00:37:52.129Z,940.35
2018-10-19T00:38:52.771Z,940.34
2018-10-19T00:39:53.561Z,940.34
2018-10-19T00:40:54.135Z,940.3
2018-10-19T00:41:55.545Z,940.27
2018-10-19T00:42:56.348Z,940.25
2018-10-19T00:43:57.588Z,940.32
2018-10-19T00:44:58.615Z,940.29
2018-10-19T00:45:58.975Z,940.27
2018-10-19T00:46:59.837Z,940.23
2018-10-19T00:48:00.517Z,940.26
2018-10-19T00:49:01.143Z,940.28
2018-10-19T00:50:01.942Z,940.26
2018-10-19T00:51:03.206Z,940.25
2018-10-19T00:52:03.936Z,940.25
2018-10-19T00:53:04.804Z,940.24
2018-10-19T00:54:05.850Z,940.26
2018-10-19T00:55:06.641Z,940.25
2018-10-19T00:56:07.151Z,940.24
2018-10-19T00:57:08.965Z,940.28
2018-10-19T00:58:09.992Z,940.27
2018-10-19T00:59:11.014Z,940.31
2018-10-19T01:00:11.597Z,940.3
2018-10-19T01:01:12.393Z,940.33
2018-10-19T01:02:13.461Z,940.34
2018-10-19T01:03:14.692Z,940.35
2018-10-19T01:04:15.753Z,940.29
2018-10-19T01:05:16.251Z,940.35
2018-10-19T01:06:17.345Z,940.32
2018-10-19T01:07:17.969Z,940.29
2018-10-19T01:08:18.482Z,940.3
2018-10-19T01:09:19.105Z,940.32
2018-10-19T01:10:20.180Z,940.32
2018-10-19T01:11:21.252Z,940.28
2018-10-19T01:12:22.324Z,940.29
2018-10-19T01:13:23.319Z,940.25
2018-10-19T01:14:24.114Z,940.25
2018-10-19T01:15:24.629Z,940.26
2018-10-19T01:16:25.866Z,940.29
2018-10-19T01:17:26.387Z,940.28
2018-10-19T01:18:27.221Z,940.28
2018-10-19T01:19:28.570Z,940.27
2018-10-19T01:20:28.919Z,940.26
2018-10-19T01:21:30.001Z,940.27
2018-10-19T01:22:30.356Z,940.28
2018-10-19T01:23:31.293Z,940.27
2018-10-19T01:24:32.078Z,940.27
2018-10-19T01:25:32.988Z,940.28
2018-10-19T01:26:34.062Z,940.25
2018-10-19T01:27:34.411Z,940.27
2018-10-19T01:28:35.041Z,940.31
2018-10-19T01:29:36.436Z,940.27
2018-10-19T01:30:37.229Z,940.3
2018-10-19T01:31:37.747Z,940.31
2018-10-19T01:32:38.820Z,940.27
2018-10-19T01:33:39.200Z,940.29
2018-10-19T01:34:39.713Z,940.28
2018-10-19T01:35:40.063Z,940.25
2018-10-19T01:36:40.720Z,940.28
2018-10-19T01:37:41.516Z,940.27
2018-10-19T01:38:42.584Z,940.28
2018-10-19T01:39:43.656Z,940.27
2018-10-19T01:40:44.171Z,940.24
2018-10-19T01:41:44.683Z,940.28
2018-10-19T01:42:45.478Z,940.24
2018-10-19T01:43:46.721Z,940.24
2018-10-19T01:44:47.793Z,940.23
2018-10-19T01:45:48.875Z,940.24
2018-10-19T01:46:50.111Z,940.25
2018-10-19T01:47:50.905Z,940.24
2018-10-19T01:48:51.535Z,940.23
2018-10-19T01:49:52.054Z,940.25
2018-10-19T01:50:52.893Z,940.26
2018-10-19T01:51:54.013Z,940.21
2018-10-19T01:52:54.854Z,940.25
2018-10-19T01:53:56.073Z,940.22
2018-10-19T01:54:56.591Z,940.27
2018-10-19T01:55:57.107Z,940.24
2018-10-19T01:56:58.500Z,940.21
2018-10-19T01:58:00.054Z,940.23
2018-10-19T01:59:00.925Z,940.2
2018-10-19T02:00:01.651Z,940.23
2018-10-19T02:01:02.004Z,940.16
2018-10-19T02:02:02.527Z,940.21
2018-10-19T02:03:02.894Z,940.16
2018-10-19T02:04:03.368Z,940.18
2018-10-19T02:05:04.190Z,940.14
2018-10-19T02:06:04.928Z,940.13
2018-10-19T02:07:06.276Z,940.16
2018-10-19T02:08:06.622Z,940.16
2018-10-19T02:09:08.091Z,940.16
2018-10-19T02:10:08.630Z,940.16
2018-10-19T02:11:09.578Z,940.15
2018-10-19T02:12:10.519Z,940.14
2018-10-19T02:13:10.879Z,940.17
2018-10-19T02:14:11.849Z,940.17
2018-10-19T02:15:12.717Z,940.14
2018-10-19T02:16:13.333Z,940.17
2018-10-19T02:17:14.717Z,940.1
2018-10-19T02:18:15.518Z,940.17
2018-10-19T02:19:16.589Z,940.16
2018-10-19T02:20:17.662Z,940.2
2018-10-19T02:21:18.011Z,940.21
2018-10-19T02:22:18.525Z,940.15
2018-10-19T02:23:19.444Z,940.23
2018-10-19T02:24:20.417Z,940.22
2018-10-19T02:25:21.489Z,940.2
2018-10-19T02:26:22.562Z,940.23
2018-10-19T02:27:23.189Z,940.22
2018-10-19T02:28:23.981Z,940.23
2018-10-19T02:29:24.772Z,940.15
2018-10-19T02:30:25.568Z,940.19
2018-10-19T02:31:26.816Z,940.19
2018-10-19T02:32:27.611Z,940.21
2018-10-19T02:33:28.516Z,940.17
2018-10-19T02:34:29.870Z,940.14
2018-10-19T02:35:30.940Z,940.14
2018-10-19T02:36:32.041Z,940.16
2018-10-19T02:37:32.958Z,940.13
2018-10-19T02:38:34.029Z,940.17
2018-10-19T02:39:34.823Z,940.12
2018-10-19T02:40:35.446Z,940.11
2018-10-19T02:41:36.805Z,940.1
2018-10-19T02:42:37.596Z,940.09
2018-10-19T02:43:38.670Z,940.1
2018-10-19T02:44:39.038Z,940.12
2018-10-19T02:45:39.671Z,940.09
2018-10-19T02:46:40.190Z,940.1
2018-10-19T02:47:40.700Z,940.09
2018-10-19T02:48:41.771Z,940.12
2018-10-19T02:49:42.292Z,940.12
2018-10-19T02:50:42.647Z,940.14
2018-10-19T02:51:43.717Z,940.14
2018-10-19T02:52:44.791Z,940.13
2018-10-19T02:53:46.306Z,940.14
2018-10-19T02:54:47.552Z,940.12
2018-10-19T02:55:48.901Z,940.06
2018-10-19T02:56:49.413Z,940.1
2018-10-19T02:57:50.485Z,940.09
2018-10-19T02:58:51.291Z,940.13
2018-10-19T02:59:51.683Z,940.13
2018-10-19T03:00:53.031Z,940.16
2018-10-19T03:01:53.548Z,940.17
2018-10-19T03:02:54.664Z,940.19
2018-10-19T03:03:55.367Z,940.2
2018-10-19T03:04:56.378Z,940.16
2018-10-19T03:05:56.905Z,940.18
2018-10-19T03:06:57.418Z,940.15
2018-10-19T03:07:58.488Z,940.12
2018-10-19T03:08:59.196Z,940.1
2018-10-19T03:09:59.849Z,940.11
2018-10-19T03:11:01.240Z,940.07
2018-10-19T03:12:02.288Z,940.08
2018-10-19T03:13:03.085Z,940.06
2018-10-19T03:14:03.993Z,940.06
2018-10-19T03:15:04.852Z,940.04
2018-10-19T03:16:05.698Z,940.06
2018-10-19T03:17:06.636Z,940.08
2018-10-19T03:18:08.023Z,940.08
2018-10-19T03:19:08.369Z,940.12
2018-10-19T03:20:08.720Z,940.12
2018-10-19T03:21:09.463Z,940.12
2018-10-19T03:22:10.684Z,940.11
2018-10-19T03:23:11.810Z,940.13
2018-10-19T03:24:13.302Z,940.16
2018-10-19T03:25:14.114Z,940.14
2018-10-19T03:26:15.300Z,940.21
2018-10-19T03:27:16.236Z,940.18
2018-10-19T03:28:16.632Z,940.16
2018-10-19T03:29:17.710Z,940.18
2018-10-19T03:30:18.549Z,940.14
2018-10-19T03:31:19.749Z,940.14
2018-10-19T03:32:20.688Z,940.12
2018-10-19T03:33:22.053Z,940.12
2018-10-19T03:34:22.405Z,940.06
2018-10-19T03:35:23.054Z,940.08
2018-10-19T03:36:24.130Z,940.06
2018-10-19T03:37:24.918Z,940.05
2018-10-19T03:38:25.549Z,940.09
2018-10-19T03:39:26.620Z,940.07
2018-10-19T03:40:27.414Z,940.1
2018-10-19T03:41:28.766Z,940.08
2018-10-19T03:42:29.122Z,940.1
2018-10-19T03:43:29.928Z,940.1
2018-10-19T03:44:30.844Z,940.09
2018-10-19T03:45:32.106Z,940.08
2018-10-19T03:46:32.900Z,940.08
2018-10-19T03:47:33.969Z,940.06
2018-10-19T03:48:34.873Z,940.04
2018-10-19T03:49:35.715Z,940.05
2018-10-19T03:50:36.344Z,940.1
2018-10-19T03:51:37.141Z,940.07
2018-10-19T03:52:38.495Z,940.1
2018-10-19T03:53:39.285Z,940.1
2018-10-19T03:54:40.355Z,940.1
2018-10-19T03:55:41.010Z,940.12
2018-10-19T03:56:41.526Z,940.12
2018-10-19T03:57:42.886Z,940.14
2018-10-19T03:58:43.956Z,940.16
2018-10-19T03:59:45.025Z,940.17
2018-10-19T04:00:45.381Z,940.16
2018-10-19T04:01:46.172Z,940.18
2018-10-19T04:02:47.246Z,940.21
2018-10-19T04:03:48.323Z,940.21
2018-10-19T04:04:48.837Z,940.21
2018-10-19T04:05:50.116Z,940.22
2018-10-19T04:06:51.021Z,940.2
2018-10-19T04:07:51.370Z,940.26
2018-10-19T04:08:52.951Z,940.23
2018-10-19T04:09:54.348Z,940.24
2018-10-19T04:10:55.448Z,940.27
2018-10-19T04:11:56.004Z,940.25
2018-10-19T04:12:56.354Z,940.26
2018-10-19T04:13:57.147Z,940.27
2018-10-19T04:14:58.645Z,940.28
2018-10-19T04:15:59.620Z,940.27
2018-10-19T04:17:01.045Z,940.25
2018-10-19T04:18:02.021Z,940.25
2018-10-19T04:19:03.097Z,940.31
2018-10-19T04:20:04.444Z,940.33
2018-10-19T04:21:05.212Z,940.32
2018-10-19T04:22:05.638Z,940.36
2018-10-19T04:23:07.263Z,940.35
2018-10-19T04:24:08.015Z,940.37
2018-10-19T04:25:09.071Z,940.38
2018-10-19T04:26:09.630Z,940.38
2018-10-19T04:27:10.450Z,940.4
2018-10-19T04:28:11.463Z,940.4
2018-10-19T04:29:12.276Z,940.39
2018-10-19T04:30:12.862Z,940.35
2018-10-19T04:31:13.650Z,940.37
2018-10-19T04:32:14.282Z,940.38
2018-10-19T04:33:14.680Z,940.35
2018-10-19T04:34:15.657Z,940.34
2018-10-19T04:35:16.991Z,940.38
2018-10-19T04:36:17.561Z,940.41
2018-10-19T04:37:18.392Z,940.4
2018-10-19T04:38:18.740Z,940.4
2018-10-19T04:39:20.094Z,940.43
2018-10-19T04:40:20.885Z,940.4
2018-10-19T04:41:21.890Z,940.42
2018-10-19T04:42:23.033Z,940.41
2018-10-19T04:43:24.129Z,940.39
2018-10-19T04:44:25.201Z,940.43
2018-10-19T04:45:25.987Z,940.41
2018-10-19T04:46:27.237Z,940.43
2018-10-19T04:47:28.394Z,940.45
2018-10-19T04:48:29.519Z,940.47
2018-10-19T04:49:30.422Z,940.47
2018-10-19T04:50:31.210Z,940.45
2018-10-19T04:51:32.559Z,940.44
2018-10-19T04:52:33.917Z,940.46
2018-10-19T04:53:35.385Z,940.44
2018-10-19T04:54:36.141Z,940.47
2018-10-19T04:55:36.652Z,940.44
2018-10-19T04:56:21.977Z,940.43
2018-10-19T04:57:22.434Z,940.43
2018-10-19T04:58:23.057Z,940.42
2018-10-19T04:59:24.422Z,940.48
2018-10-19T05:00:25.522Z,940.45
2018-10-19T05:01:26.587Z,940.46
2018-10-19T05:02:27.388Z,940.49
2018-10-19T05:03:28.177Z,940.47
2018-10-19T05:04:29.017Z,940.44
2018-10-19T05:05:29.933Z,940.42
2018-10-19T05:06:31.043Z,940.47
2018-10-19T05:07:31.542Z,940.41
2018-10-19T05:08:32.615Z,940.42
2018-10-19T05:09:32.964Z,940.43
2018-10-19T05:10:33.883Z,940.42
2018-10-19T05:11:34.954Z,940.45
2018-10-19T05:12:36.690Z,940.43
2018-10-19T05:13:37.813Z,940.42
2018-10-19T05:14:38.888Z,940.42
2018-10-19T05:15:39.237Z,940.44
2018-10-19T05:16:40.027Z,940.45
2018-10-19T05:17:40.716Z,940.42
2018-10-19T05:18:42.062Z,940.44
2018-10-19T05:19:43.129Z,940.44
2018-10-19T05:20:43.922Z,940.46
2018-10-19T05:21:44.715Z,940.42
2018-10-19T05:22:45.790Z,940.45
2018-10-19T05:23:46.585Z,940.47
2018-10-19T05:24:47.482Z,940.48
2018-10-19T05:25:47.980Z,940.48
2018-10-19T05:26:49.052Z,940.5
2018-10-19T05:27:50.162Z,940.52
2018-10-19T05:28:51.075Z,940.5
2018-10-19T05:29:51.564Z,940.51
2018-10-19T05:30:52.190Z,940.55
2018-10-19T05:31:52.707Z,940.6
2018-10-19T05:32:53.512Z,940.61
2018-10-19T05:33:54.229Z,940.62
2018-10-19T05:34:55.365Z,940.63
2018-10-19T05:35:55.813Z,940.61
2018-10-19T05:36:56.437Z,940.65
2018-10-19T05:37:57.317Z,940.64
2018-10-19T05:38:58.492Z,940.61
2018-10-19T05:39:59.624Z,940.62
2018-10-19T05:41:01.041Z,940.63
2018-10-19T05:42:02.044Z,940.65
2018-10-19T05:43:02.406Z,940.63
2018-10-19T05:44:03.554Z,940.62
2018-10-19T05:45:04.355Z,940.62
2018-10-19T05:46:05.429Z,940.65
2018-10-19T05:47:06.313Z,940.64
2018-10-19T05:48:06.735Z,940.63
2018-10-19T05:49:07.259Z,940.63
2018-10-19T05:50:08.578Z,940.64
2018-10-19T05:51:08.846Z,940.61
2018-10-19T05:52:09.946Z,940.61
2018-10-19T05:53:10.676Z,940.6
2018-10-19T05:54:11.899Z,940.6
2018-10-19T05:55:13.250Z,940.65
2018-10-19T05:56:14.229Z,940.66
2018-10-19T05:57:14.786Z,940.68
2018-10-19T05:58:15.479Z,940.74
2018-10-19T05:59:16.478Z,940.72
2018-10-19T06:00:16.925Z,940.72
2018-10-19T06:01:17.735Z,940.72
2018-10-19T06:02:18.837Z,940.76
2018-10-19T06:03:19.264Z,940.77
2018-10-19T06:04:20.517Z,940.81
2018-10-19T06:05:21.161Z,940.83
2018-10-19T06:06:22.545Z,940.82
2018-10-19T06:07:24.181Z,940.8
2018-10-19T06:08:23.801Z,940.8
2018-10-19T06:09:24.872Z,940.8
2018-10-19T06:10:25.666Z,940.81
2018-10-19T06:11:26.182Z,940.83
2018-10-19T06:12:26.980Z,940.89
2018-10-19T06:13:28.426Z,940.89
2018-10-19T06:14:29.564Z,940.88
2018-10-19T06:15:30.429Z,940.91
2018-10-19T06:16:31.770Z,940.92
2018-10-19T06:17:32.923Z,940.92
2018-10-19T06:18:33.925Z,940.9
2018-10-19T06:19:34.728Z,940.95
2018-10-19T06:20:35.796Z,940.94
2018-10-19T06:21:36.875Z,941
2018-10-19T06:22:37.684Z,941.02
2018-10-19T06:23:38.199Z,941.04
2018-10-19T06:24:38.997Z,941.08
2018-10-19T06:25:40.237Z,941.08
2018-10-19T06:26:41.259Z,941.14
2018-10-19T06:27:41.778Z,941.1
2018-10-19T06:28:42.610Z,941.13
2018-10-19T06:29:43.515Z,941.15
2018-10-19T06:30:44.033Z,941.15
2018-10-19T06:31:45.110Z,941.18
2018-10-19T06:32:45.738Z,941.17
2018-10-19T06:33:46.668Z,941.17
2018-10-19T06:34:47.359Z,941.17
2018-10-19T06:35:47.885Z,941.18
2018-10-19T06:36:48.957Z,941.18
2018-10-19T06:37:50.315Z,941.23
2018-10-19T06:38:51.005Z,941.24
2018-10-19T06:39:51.571Z,941.24
2018-10-19T06:40:52.921Z,941.28
2018-10-19T06:41:53.636Z,941.28
2018-10-19T06:42:54.434Z,941.32
2018-10-19T06:43:55.838Z,941.31
2018-10-19T06:44:56.632Z,941.38
2018-10-19T06:45:57.875Z,941.38
2018-10-19T06:46:58.721Z,941.42
2018-10-19T06:47:59.207Z,941.42
2018-10-19T06:49:00.481Z,941.43
2018-10-19T06:50:01.225Z,941.43
2018-10-19T06:51:02.387Z,941.46
2018-10-19T06:52:02.749Z,941.47
2018-10-19T06:53:03.739Z,941.46
2018-10-19T06:54:04.175Z,941.52
2018-10-19T06:55:05.255Z,941.47
2018-10-19T06:56:06.069Z,941.45
2018-10-19T06:57:06.937Z,941.47
2018-10-19T06:58:07.739Z,941.47
2018-10-19T06:59:09.658Z,941.49
2018-10-19T07:00:11.079Z,941.49
2018-10-19T07:01:11.882Z,941.49
2018-10-19T07:02:13.027Z,941.44
2018-10-19T07:03:13.695Z,941.48
2018-10-19T07:04:14.492Z,941.49
2018-10-19T07:05:15.074Z,941.55
2018-10-19T07:06:15.970Z,941.59
2018-10-19T07:07:16.739Z,941.59
2018-10-19T07:08:17.953Z,941.61
2018-10-19T07:09:18.479Z,941.68
2018-10-19T07:10:19.567Z,941.64
2018-10-19T07:11:21.082Z,941.65
2018-10-19T07:12:22.332Z,941.64
2018-10-19T07:13:22.851Z,941.67
2018-10-19T07:14:23.666Z,941.68
2018-10-19T07:15:24.186Z,941.67
2018-10-19T07:16:25.266Z,941.72
2018-10-19T07:17:26.112Z,941.72
2018-10-19T07:18:26.714Z,941.72
2018-10-19T07:19:27.486Z,941.69
2018-10-19T07:20:28.564Z,941.73
2018-10-19T07:21:29.417Z,941.77
2018-10-19T07:22:29.869Z,941.78
2018-10-19T07:23:31.392Z,941.73
2018-10-19T07:24:32.190Z,941.76
2018-10-19T07:25:33.438Z,941.74
2018-10-19T07:26:33.792Z,941.75
2018-10-19T07:27:34.945Z,941.82
2018-10-19T07:28:35.578Z,941.77
2018-10-19T07:29:36.092Z,941.84
2018-10-19T07:30:36.546Z,941.84
2018-10-19T07:31:37.630Z,941.78
2018-10-19T07:32:38.869Z,941.82
2018-10-19T07:33:39.952Z,941.81
2018-10-19T07:34:40.589Z,941.79
2018-10-19T07:35:41.667Z,941.83
2018-10-19T07:36:42.192Z,941.82
2018-10-19T07:37:42.993Z,941.79
2018-10-19T07:38:43.344Z,941.81
2018-10-19T07:39:43.910Z,941.81
2018-10-19T07:40:45.155Z,941.82
2018-10-19T07:41:45.862Z,941.82
2018-10-19T07:42:47.531Z,941.84
2018-10-19T07:43:47.961Z,941.88
2018-10-19T07:44:49.205Z,941.85
2018-10-19T07:45:50.024Z,941.83
2018-10-19T07:46:51.471Z,941.85
2018-10-19T07:47:53.233Z,941.85
2018-10-19T07:48:54.188Z,941.9
2018-10-19T07:49:55.828Z,941.88
2018-10-19T07:50:57.031Z,941.91
2018-10-19T07:51:57.942Z,941.86
2018-10-19T07:52:58.796Z,941.9
2018-10-19T07:53:59.411Z,941.89
2018-10-19T07:55:00.118Z,941.85
2018-10-19T07:56:01.591Z,941.84
2018-10-19T07:57:02.540Z,941.89
2018-10-19T07:58:03.349Z,941.88
2018-10-19T07:59:04.555Z,941.88
2018-10-19T08:00:05.468Z,941.86
2018-10-19T08:01:06.908Z,941.91
2018-10-19T08:02:08.464Z,941.9
2018-10-19T08:03:09.234Z,941.87
2018-10-19T08:04:09.753Z,941.88
2018-10-19T08:05:10.396Z,941.87
2018-10-19T08:06:11.527Z,941.88
2018-10-19T08:07:12.609Z,941.9
2018-10-19T08:08:13.420Z,941.89
2018-10-19T08:09:14.638Z,941.94
2018-10-19T08:10:15.621Z,941.94
2018-10-19T08:11:17.645Z,941.98
2018-10-19T08:12:17.455Z,941.98
2018-10-19T08:13:17.813Z,941.99
2018-10-19T08:14:19.505Z,942
2018-10-19T08:15:20.165Z,941.99
2018-10-19T08:16:20.692Z,942.03
2018-10-19T08:17:21.495Z,942.07
2018-10-19T08:18:22.016Z,942.06
2018-10-19T08:19:22.821Z,942.08
2018-10-19T08:20:23.115Z,942.11
2018-10-19T08:21:23.918Z,942.09
2018-10-19T08:22:24.995Z,942.11
2018-10-19T08:23:25.517Z,942.09
2018-10-19T08:24:26.319Z,942.1
2018-10-19T08:25:27.929Z,942.09
2018-10-19T08:26:28.343Z,942.08
2018-10-19T08:27:29.292Z,942.11
2018-10-19T08:28:29.698Z,942.08
2018-10-19T08:29:30.059Z,942.08
2018-10-19T08:30:31.036Z,942.09
2018-10-19T08:31:32.282Z,942.13
2018-10-19T08:32:33.359Z,942.11
2018-10-19T08:33:34.442Z,942.11
2018-10-19T08:34:35.804Z,942.06
2018-10-19T08:35:36.883Z,942.11
2018-10-19T08:36:37.962Z,942.1
2018-10-19T08:37:38.512Z,942.06
2018-10-19T08:38:38.915Z,942.07
2018-10-19T08:39:39.786Z,942.08
2018-10-19T08:40:41.045Z,942.06
2018-10-19T08:41:41.445Z,942.05
2018-10-19T08:42:41.993Z,942.06
2018-10-19T08:43:42.516Z,942.08
2018-10-19T08:44:43.043Z,942.09
2018-10-19T08:45:44.571Z,942.1
2018-10-19T08:46:45.207Z,942.09
2018-10-19T08:47:46.070Z,942.1
2018-10-19T08:48:46.569Z,942.1
2018-10-19T08:49:48.089Z,942.06
2018-10-19T08:50:49.204Z,942.06
2018-10-19T08:51:49.845Z,942.03
2018-10-19T08:52:50.195Z,942
2018-10-19T08:53:51.657Z,941.96
2018-10-19T08:54:52.928Z,942
2018-10-19T08:55:54.016Z,941.95
2018-10-19T08:56:55.135Z,941.98
2018-10-19T08:57:56.176Z,941.95
2018-10-19T08:58:56.977Z,941.93
2018-10-19T08:59:58.413Z,941.96
2018-10-19T09:00:58.878Z,942.04
2018-10-19T09:01:59.958Z,942.03
2018-10-19T09:03:01.454Z,942.06
2018-10-19T09:04:02.728Z,942.07
2018-10-19T09:05:03.512Z,942.08
2018-10-19T09:06:04.864Z,942.04
2018-10-19T09:07:05.792Z,942.07
2018-10-19T09:08:06.315Z,942.08
2018-10-19T09:09:06.740Z,942.08
2018-10-19T09:10:07.706Z,942.08
2018-10-19T09:11:08.664Z,942.07
2018-10-19T09:12:09.836Z,942.06
2018-10-19T09:13:10.645Z,942.1
2018-10-19T09:14:11.446Z,942.12
2018-10-19T09:15:13.015Z,942.11
2018-10-19T09:16:14.390Z,942.09
2018-10-19T09:17:15.710Z,942.09
2018-10-19T09:18:16.795Z,942.06
2018-10-19T09:19:17.937Z,942.1
2018-10-19T09:20:19.015Z,942.06
2018-10-19T09:21:19.520Z,942.1
2018-10-19T09:22:20.599Z,942.1
2018-10-19T09:23:21.683Z,942.08
2018-10-19T09:24:22.207Z,942.1
2018-10-19T09:25:23.020Z,942.1
2018-10-19T09:26:24.102Z,942.1
2018-10-19T09:27:24.628Z,942.11
2018-10-19T09:28:25.262Z,942.15
2018-10-19T09:29:25.863Z,942.13
2018-10-19T09:30:26.580Z,942.1
2018-10-19T09:31:27.418Z,942.11
2018-10-19T09:32:28.061Z,942.11
2018-10-19T09:33:29.420Z,942.12
2018-10-19T09:34:30.501Z,942.13
2018-10-19T09:35:31.541Z,942.08
2018-10-19T09:36:33.794Z,942.07
2018-10-19T09:37:33.876Z,942.1
2018-10-19T09:38:34.395Z,942.07
2018-10-19T09:39:34.919Z,942.04
2018-10-19T09:40:36.444Z,942.11
2018-10-19T09:41:37.039Z,942.08
2018-10-19T09:42:38.456Z,942.06
2018-10-19T09:43:38.719Z,942.06
2018-10-19T09:44:39.245Z,942.08
2018-10-19T09:45:40.136Z,942.12
2018-10-19T09:46:40.389Z,942.12
2018-10-19T09:47:41.265Z,942.08
2018-10-19T09:48:42.137Z,942.14
2018-10-19T09:49:42.937Z,942.11
2018-10-19T09:50:43.749Z,942.09
2018-10-19T09:51:44.859Z,942.08
2018-10-19T09:52:45.943Z,942.11
2018-10-19T09:53:47.026Z,942.14
2018-10-19T09:54:48.498Z,942.14
2018-10-19T09:55:49.955Z,942.11
2018-10-19T09:56:01.341Z,942.16
2018-10-19T09:57:02.783Z,942.17
2018-10-19T09:58:03.765Z,942.23
2018-10-19T09:59:04.561Z,942.27
2018-10-19T10:00:05.552Z,942.27
2018-10-19T10:01:06.106Z,942.24
2018-10-19T10:02:07.642Z,942.29
2018-10-19T10:03:09.130Z,942.31
2018-10-19T10:04:10.333Z,942.31
2018-10-19T10:05:12.038Z,942.34
2018-10-19T10:06:13.116Z,942.34
2018-10-19T10:07:14.161Z,942.34
2018-10-19T10:08:14.765Z,942.35
2018-10-19T10:09:16.628Z,942.32
2018-10-19T10:10:17.410Z,942.31
2018-10-19T10:11:18.591Z,942.35
2018-10-19T10:12:19.523Z,942.33
2018-10-19T10:13:20.334Z,942.36
2018-10-19T10:14:21.143Z,942.37
2018-10-19T10:15:21.772Z,942.35
2018-10-19T10:16:23.041Z,942.42
2018-10-19T10:17:24.137Z,942.39
2018-10-19T10:18:24.938Z,942.4
2018-10-19T10:19:26.040Z,942.36
2018-10-19T10:20:26.856Z,942.39
2018-10-19T10:21:27.946Z,942.39
2018-10-19T10:22:28.758Z,942.35
2018-10-19T10:23:29.501Z,942.35
2018-10-19T10:24:30.853Z,942.36
2018-10-19T10:25:32.318Z,942.36
2018-10-19T10:26:33.407Z,942.38
2018-10-19T10:27:34.506Z,942.35
2018-10-19T10:28:35.397Z,942.38
2018-10-19T10:29:36.209Z,942.33
2018-10-19T10:30:36.750Z,942.34
2018-10-19T10:31:37.835Z,942.35
2018-10-19T10:32:38.925Z,942.34
2018-10-19T10:33:40.462Z,942.28
2018-10-19T10:34:41.998Z,942.36
2018-10-19T10:35:43.089Z,942.35
2018-10-19T10:36:43.747Z,942.32
2018-10-19T10:37:44.062Z,942.29
2018-10-19T10:38:45.296Z,942.28
2018-10-19T10:39:45.663Z,942.24
2018-10-19T10:40:46.197Z,942.28
2018-10-19T10:41:47.008Z,942.27
2018-10-19T10:42:47.375Z,942.23
2018-10-19T10:43:47.739Z,942.27
2018-10-19T10:44:49.111Z,942.25
2018-10-19T10:45:50.196Z,942.25
2018-10-19T10:46:51.529Z,942.24
2018-10-19T10:47:51.926Z,942.2
2018-10-19T10:48:53.045Z,942.21
2018-10-19T10:49:54.118Z,942.19
2018-10-19T10:50:55.207Z,942.2
2018-10-19T10:51:56.360Z,942.17
2018-10-19T10:52:57.648Z,942.15
2018-10-19T10:53:58.178Z,942.19
2018-10-19T10:54:59.313Z,942.17
2018-10-19T10:56:00.196Z,942.15
2018-10-19T10:57:00.726Z,942.21
2018-10-19T10:58:01.844Z,942.16
2018-10-19T10:59:02.387Z,942.12
2018-10-19T11:00:03.030Z,942.12
2018-10-19T11:01:04.668Z,942.09
2018-10-19T11:02:05.697Z,942.07
2018-10-19T11:03:06.790Z,942.09
2018-10-19T11:04:07.232Z,942.04
2018-10-19T11:05:07.708Z,942.01
2018-10-19T11:06:09.072Z,942
2018-10-19T11:07:09.869Z,942.06
2018-10-19T11:08:11.108Z,942.03
2018-10-19T11:09:11.747Z,942.02
2018-10-19T11:10:12.749Z,942.02
2018-10-19T11:11:13.938Z,941.97
2018-10-19T11:12:14.984Z,942
2018-10-19T11:13:16.066Z,941.97
2018-10-19T11:14:16.597Z,941.96
2018-10-19T11:15:17.242Z,941.92
2018-10-19T11:16:18.330Z,941.92
2018-10-19T11:17:19.604Z,941.87
2018-10-19T11:18:20.526Z,941.9
2018-10-19T11:19:21.331Z,941.9
2018-10-19T11:20:21.878Z,941.89
2018-10-19T11:21:24.010Z,941.93
2018-10-19T11:21:35.066Z,941.91
2018-10-19T11:22:34.950Z,941.92
2018-10-19T11:23:35.587Z,941.88
2018-10-19T11:24:36.394Z,941.91
2018-10-19T11:25:37.161Z,941.9
2018-10-19T11:26:38.522Z,941.94
2018-10-19T11:27:39.329Z,941.89
2018-10-19T11:28:41.396Z,941.94
2018-10-19T11:28:51.907Z,941.92
2018-10-19T11:29:53.174Z,941.91
2018-10-19T11:30:54.034Z,941.89
2018-10-19T11:31:55.281Z,941.93
2018-10-19T11:32:55.663Z,941.95
2018-10-19T11:33:57.315Z,941.92
2018-10-19T11:34:58.726Z,941.87
2018-10-19T11:35:59.101Z,941.89
2018-10-19T11:36:59.520Z,941.87
2018-10-19T11:38:00.478Z,941.85
2018-10-19T11:39:01.665Z,941.85
2018-10-19T11:40:03.148Z,941.78
2018-10-19T11:41:04.244Z,941.76
2018-10-19T11:42:04.889Z,941.77
2018-10-19T11:43:05.547Z,941.77
2018-10-19T11:44:06.203Z,941.79
2018-10-19T11:45:07.294Z,941.78
2018-10-19T11:46:08.560Z,941.75
2018-10-19T11:47:09.201Z,941.77
2018-10-19T11:48:10.386Z,941.78
2018-10-19T11:49:10.931Z,941.74
2018-10-19T11:50:11.907Z,941.74
2018-10-19T11:51:12.708Z,941.77
2018-10-19T11:52:13.620Z,941.73
2018-10-19T11:53:13.891Z,941.78
2018-10-19T11:54:14.695Z,941.8
2018-10-19T11:55:15.661Z,941.77
2018-10-19T11:56:16.570Z,941.76
2018-10-19T11:57:17.371Z,941.78
2018-10-19T11:58:18.485Z,941.76
2018-10-19T11:59:19.169Z,941.74
2018-10-19T12:00:19.872Z,941.69
2018-10-19T12:01:20.968Z,941.72
2018-10-19T12:02:21.772Z,941.71
2018-10-19T12:03:22.806Z,941.73
2018-10-19T12:04:23.589Z,941.75
2018-10-19T12:05:24.672Z,941.71
2018-10-19T12:06:25.041Z,941.74
2018-10-19T12:07:27.268Z,941.75
2018-10-19T12:08:28.417Z,941.72
2018-10-19T12:09:29.225Z,941.77
2018-10-19T12:10:29.786Z,941.77
2018-10-19T12:11:30.239Z,941.76
2018-10-19T12:12:31.045Z,941.81
2018-10-19T12:13:32.574Z,941.76
2018-10-19T12:14:33.381Z,941.79
2018-10-19T12:15:34.465Z,941.76
2018-10-19T12:16:36.337Z,941.76
2018-10-19T12:17:37.297Z,941.72
2018-10-19T12:18:39.583Z,941.73
2018-10-19T12:19:40.394Z,941.72
2018-10-19T12:20:41.006Z,941.72
2018-10-19T12:21:41.888Z,941.72
2018-10-19T12:22:42.531Z,941.7
2018-10-19T12:23:43.074Z,941.68
2018-10-19T12:24:44.447Z,941.7
2018-10-19T12:25:45.543Z,941.66
2018-10-19T12:26:46.203Z,941.67
2018-10-19T12:27:46.610Z,941.65
2018-10-19T12:28:47.417Z,941.66
2018-10-19T12:29:48.224Z,941.65
2018-10-19T12:30:49.482Z,941.66
2018-10-19T12:31:50.519Z,941.66
2018-10-19T12:32:51.301Z,941.71
2018-10-19T12:33:03.326Z,941.71
2018-10-19T12:34:03.477Z,941.69
2018-10-19T12:35:03.842Z,941.69
2018-10-19T12:36:05.089Z,941.7
2018-10-19T12:37:05.514Z,941.67
2018-10-19T12:38:08.075Z,941.66
2018-10-19T12:39:09.914Z,941.65